sensor_id;sensor_type;location;lat;lon;timestamp;pressure;altitude;pressure_sealevel;temperature;humidity
20009;BME280;10165;42.662;23.260;2022-07-03T00:01:30;94594.78;;;23.24;68.37
20009;BME280;10165;42.662;23.260;2022-07-03T00:03:57;94589.06;;;23.46;67.96
20009;BME280;10165;42.662;23.260;2022-07-03T00:06:25;94598.63;;;23.77;66.77
20009;BME280;10165;42.662;23.260;2022-07-03T00:08:52;94601.59;;;23.86;65.89
20009;BME280;10165;42.662;23.260;2022-07-03T00:11:20;94598.19;;;24.02;65.54
20009;BME280;10165;42.662;23.260;2022-07-03T00:13:46;94595.69;;;23.68;65.84
20009;BME280;10165;42.662;23.260;2022-07-03T00:16:13;94601.84;;;23.72;65.66
20009;BME280;10165;42.662;23.260;2022-07-03T00:18:40;94594.00;;;23.51;66.10
20009;BME280;10165;42.662;23.260;2022-07-03T00:21:09;94597.38;;;23.81;65.59
20009;BME280;10165;42.662;23.260;2022-07-03T00:23:52;94592.16;;;23.91;65.10
20009;BME280;10165;42.662;23.260;2022-07-03T00:26:21;94601.13;;;23.91;65.29
20009;BME280;10165;42.662;23.260;2022-07-03T00:28:47;94601.22;;;23.84;64.99
20009;BME280;10165;42.662;23.260;2022-07-03T00:31:15;94593.75;;;23.88;64.96
20009;BME280;10165;42.662;23.260;2022-07-03T00:33:42;94592.38;;;24.00;64.60
20009;BME280;10165;42.662;23.260;2022-07-03T00:36:11;94599.69;;;23.83;64.94
20009;BME280;10165;42.662;23.260;2022-07-03T00:38:38;94591.28;;;23.51;65.83
20009;BME280;10165;42.662;23.260;2022-07-03T00:41:05;94579.59;;;23.50;66.43
20009;BME280;10165;42.662;23.260;2022-07-03T00:43:32;94581.06;;;23.78;65.72
20009;BME280;10165;42.662;23.260;2022-07-03T00:46:07;94587.66;;;23.80;65.03
20009;BME280;10165;42.662;23.260;2022-07-03T00:48:37;94581.66;;;23.89;65.58
20009;BME280;10165;42.662;23.260;2022-07-03T00:51:06;94577.81;;;23.40;66.54
20009;BME280;10165;42.662;23.260;2022-07-03T00:53:36;94581.88;;;23.28;66.48
20009;BME280;10165;42.662;23.260;2022-07-03T00:56:03;94575.44;;;23.42;66.48
20009;BME280;10165;42.662;23.260;2022-07-03T00:58:31;94573.50;;;23.16;66.34
20009;BME280;10165;42.662;23.260;2022-07-03T01:01:00;94566.00;;;22.70;68.13
20009;BME280;10165;42.662;23.260;2022-07-03T01:03:28;94567.00;;;22.83;67.77
20009;BME280;10165;42.662;23.260;2022-07-03T01:06:03;94560.59;;;23.20;66.50
20009;BME280;10165;42.662;23.260;2022-07-03T01:08:48;94560.09;;;23.52;65.22
20009;BME280;10165;42.662;23.260;2022-07-03T01:11:25;94557.91;;;23.66;64.92
20009;BME280;10165;42.662;23.260;2022-07-03T01:17:03;94564.13;;;23.44;65.21
20009;BME280;10165;42.662;23.260;2022-07-03T01:22:44;94566.56;;;23.11;67.33
20009;BME280;10165;42.662;23.260;2022-07-03T01:25:26;94563.78;;;23.38;66.89
20009;BME280;10165;42.662;23.260;2022-07-03T01:30:29;94563.00;;;23.64;65.93
20009;BME280;10165;42.662;23.260;2022-07-03T01:35:29;94553.84;;;23.74;65.27
20009;BME280;10165;42.662;23.260;2022-07-03T01:38:01;94554.19;;;23.76;65.12
20009;BME280;10165;42.662;23.260;2022-07-03T01:40:29;94554.91;;;23.61;65.93
20009;BME280;10165;42.662;23.260;2022-07-03T01:42:56;94553.59;;;23.46;65.50
20009;BME280;10165;42.662;23.260;2022-07-03T01:45:26;94564.44;;;23.49;65.47
20009;BME280;10165;42.662;23.260;2022-07-03T01:47:56;94563.34;;;22.93;67.32
20009;BME280;10165;42.662;23.260;2022-07-03T01:50:25;94571.28;;;22.50;68.25
20009;BME280;10165;42.662;23.260;2022-07-03T01:52:54;94567.97;;;22.35;70.24
20009;BME280;10165;42.662;23.260;2022-07-03T01:55:23;94569.22;;;21.97;72.50
20009;BME280;10165;42.662;23.260;2022-07-03T01:57:50;94572.22;;;22.06;72.67
20009;BME280;10165;42.662;23.260;2022-07-03T02:00:19;94564.53;;;22.62;70.84
20009;BME280;10165;42.662;23.260;2022-07-03T02:02:57;94565.09;;;22.50;70.14
20009;BME280;10165;42.662;23.260;2022-07-03T02:05:38;94566.22;;;22.22;70.91
20009;BME280;10165;42.662;23.260;2022-07-03T02:08:33;94566.44;;;22.65;69.89
20009;BME280;10165;42.662;23.260;2022-07-03T02:16:44;94562.09;;;23.24;67.27
20009;BME280;10165;42.662;23.260;2022-07-03T02:19:15;94559.59;;;23.33;67.37
20009;BME280;10165;42.662;23.260;2022-07-03T02:21:49;94565.94;;;23.27;67.05
20009;BME280;10165;42.662;23.260;2022-07-03T02:24:22;94560.91;;;23.25;66.64
20009;BME280;10165;42.662;23.260;2022-07-03T02:27:00;94564.94;;;23.17;67.04
20009;BME280;10165;42.662;23.260;2022-07-03T02:29:36;94556.78;;;22.91;67.62
20009;BME280;10165;42.662;23.260;2022-07-03T02:32:07;94566.47;;;22.34;68.18
20009;BME280;10165;42.662;23.260;2022-07-03T02:34:38;94559.84;;;22.02;69.57
20009;BME280;10165;42.662;23.260;2022-07-03T02:37:10;94560.72;;;21.91;70.23
20009;BME280;10165;42.662;23.260;2022-07-03T02:42:28;94569.44;;;22.44;68.13
20009;BME280;10165;42.662;23.260;2022-07-03T02:44:59;94566.50;;;22.92;66.90
20009;BME280;10165;42.662;23.260;2022-07-03T02:47:43;94567.38;;;23.08;66.24
20009;BME280;10165;42.662;23.260;2022-07-03T02:50:11;94570.22;;;23.01;66.43
20009;BME280;10165;42.662;23.260;2022-07-03T02:57:44;94569.53;;;22.36;70.36
20009;BME280;10165;42.662;23.260;2022-07-03T03:00:12;94569.91;;;22.65;69.55
20009;BME280;10165;42.662;23.260;2022-07-03T03:02:55;94573.41;;;22.66;69.58
20009;BME280;10165;42.662;23.260;2022-07-03T03:05:26;94575.28;;;23.03;67.80
20009;BME280;10165;42.662;23.260;2022-07-03T03:10:43;94582.56;;;22.82;67.30
20009;BME280;10165;42.662;23.260;2022-07-03T03:13:13;94588.22;;;22.34;69.18
20009;BME280;10165;42.662;23.260;2022-07-03T03:15:47;94591.16;;;21.76;71.10
20009;BME280;10165;42.662;23.260;2022-07-03T03:18:21;94596.16;;;22.22;70.38
20009;BME280;10165;42.662;23.260;2022-07-03T03:20:50;94593.91;;;22.47;70.12
20009;BME280;10165;42.662;23.260;2022-07-03T03:26:11;94586.31;;;22.62;69.11
20009;BME280;10165;42.662;23.260;2022-07-03T03:28:39;94590.63;;;22.90;68.21
20009;BME280;10165;42.662;23.260;2022-07-03T03:31:07;94587.50;;;22.91;68.21
20009;BME280;10165;42.662;23.260;2022-07-03T03:33:55;94587.75;;;23.00;67.63
20009;BME280;10165;42.662;23.260;2022-07-03T03:36:22;94588.34;;;22.88;67.89
20009;BME280;10165;42.662;23.260;2022-07-03T03:38:49;94588.06;;;23.06;67.68
20009;BME280;10165;42.662;23.260;2022-07-03T03:41:16;94587.34;;;23.02;68.00
20009;BME280;10165;42.662;23.260;2022-07-03T03:43:44;94586.63;;;22.98;68.33
20009;BME280;10165;42.662;23.260;2022-07-03T03:46:11;94586.13;;;22.79;69.31
20009;BME280;10165;42.662;23.260;2022-07-03T03:48:41;94593.78;;;23.15;67.49
20009;BME280;10165;42.662;23.260;2022-07-03T03:51:08;94596.25;;;22.79;69.13
20009;BME280;10165;42.662;23.260;2022-07-03T03:53:35;94602.47;;;22.79;69.84
20009;BME280;10165;42.662;23.260;2022-07-03T03:56:07;94595.56;;;22.71;69.27
20009;BME280;10165;42.662;23.260;2022-07-03T03:58:36;94592.47;;;22.96;68.59
20009;BME280;10165;42.662;23.260;2022-07-03T04:01:04;94601.47;;;22.93;69.47
20009;BME280;10165;42.662;23.260;2022-07-03T04:03:32;94604.13;;;22.70;70.41
20009;BME280;10165;42.662;23.260;2022-07-03T04:06:00;94602.75;;;22.85;70.20
20009;BME280;10165;42.662;23.260;2022-07-03T04:08:27;94609.91;;;22.75;70.01
20009;BME280;10165;42.662;23.260;2022-07-03T04:10:55;94598.13;;;22.52;71.59
20009;BME280;10165;42.662;23.260;2022-07-03T04:13:22;94598.41;;;22.30;73.54
20009;BME280;10165;42.662;23.260;2022-07-03T04:15:51;94594.81;;;22.98;70.08
20009;BME280;10165;42.662;23.260;2022-07-03T04:18:18;94593.19;;;23.00;70.45
20009;BME280;10165;42.662;23.260;2022-07-03T04:20:45;94595.84;;;23.07;69.25
20009;BME280;10165;42.662;23.260;2022-07-03T04:23:12;94598.19;;;23.32;68.16
20009;BME280;10165;42.662;23.260;2022-07-03T04:25:39;94589.78;;;23.46;67.34
20009;BME280;10165;42.662;23.260;2022-07-03T04:28:05;94585.59;;;23.65;66.98
20009;BME280;10165;42.662;23.260;2022-07-03T04:30:48;94589.63;;;23.57;66.99
20009;BME280;10165;42.662;23.260;2022-07-03T04:33:15;94582.50;;;23.13;66.91
20009;BME280;10165;42.662;23.260;2022-07-03T04:35:41;94591.78;;;23.19;67.95
20009;BME280;10165;42.662;23.260;2022-07-03T04:38:08;94582.38;;;22.66;69.01
20009;BME280;10165;42.662;23.260;2022-07-03T04:40:35;94590.41;;;22.47;69.95
20009;BME280;10165;42.662;23.260;2022-07-03T04:43:02;94590.13;;;22.98;68.09
20009;BME280;10165;42.662;23.260;2022-07-03T04:45:28;94597.94;;;22.96;67.76
20009;BME280;10165;42.662;23.260;2022-07-03T04:47:55;94591.47;;;23.13;67.96
20009;BME280;10165;42.662;23.260;2022-07-03T04:50:22;94599.53;;;23.20;67.92
20009;BME280;10165;42.662;23.260;2022-07-03T04:52:49;94596.34;;;23.25;67.97
20009;BME280;10165;42.662;23.260;2022-07-03T04:55:15;94593.94;;;23.54;67.67
20009;BME280;10165;42.662;23.260;2022-07-03T04:57:42;94593.19;;;23.27;67.36
20009;BME280;10165;42.662;23.260;2022-07-03T05:00:09;94588.84;;;23.79;65.73
20009;BME280;10165;42.662;23.260;2022-07-03T05:02:36;94585.53;;;23.92;65.38
20009;BME280;10165;42.662;23.260;2022-07-03T05:05:03;94595.09;;;23.80;64.68
20009;BME280;10165;42.662;23.260;2022-07-03T05:07:30;94591.28;;;23.74;65.43
20009;BME280;10165;42.662;23.260;2022-07-03T05:09:57;94591.34;;;23.70;65.08
20009;BME280;10165;42.662;23.260;2022-07-03T05:12:24;94594.47;;;23.92;64.61
20009;BME280;10165;42.662;23.260;2022-07-03T05:14:51;94594.22;;;24.06;64.10
20009;BME280;10165;42.662;23.260;2022-07-03T05:17:18;94589.19;;;23.81;64.57
20009;BME280;10165;42.662;23.260;2022-07-03T05:19:45;94595.94;;;23.97;62.82
20009;BME280;10165;42.662;23.260;2022-07-03T05:22:12;94589.31;;;23.74;64.38
20009;BME280;10165;42.662;23.260;2022-07-03T05:24:39;94594.22;;;24.06;63.81
20009;BME280;10165;42.662;23.260;2022-07-03T05:27:06;94591.94;;;24.64;62.72
20009;BME280;10165;42.662;23.260;2022-07-03T05:29:32;94588.19;;;24.94;61.14
20009;BME280;10165;42.662;23.260;2022-07-03T05:32:04;94583.44;;;24.58;63.04
20009;BME280;10165;42.662;23.260;2022-07-03T05:34:31;94586.31;;;24.91;62.27
20009;BME280;10165;42.662;23.260;2022-07-03T05:36:58;94583.75;;;25.52;60.31
20009;BME280;10165;42.662;23.260;2022-07-03T05:39:25;94584.31;;;25.43;59.97
20009;BME280;10165;42.662;23.260;2022-07-03T05:42:01;94596.31;;;24.77;60.92
20009;BME280;10165;42.662;23.260;2022-07-03T05:44:28;94593.16;;;24.99;60.88
20009;BME280;10165;42.662;23.260;2022-07-03T05:46:55;94594.69;;;25.00;59.46
20009;BME280;10165;42.662;23.260;2022-07-03T05:49:22;94596.47;;;24.90;60.22
20009;BME280;10165;42.662;23.260;2022-07-03T05:51:49;94602.63;;;24.94;60.31
20009;BME280;10165;42.662;23.260;2022-07-03T05:54:16;94603.81;;;24.93;60.05
20009;BME280;10165;42.662;23.260;2022-07-03T05:56:42;94604.03;;;24.83;59.66
20009;BME280;10165;42.662;23.260;2022-07-03T05:59:09;94600.44;;;25.05;59.77
20009;BME280;10165;42.662;23.260;2022-07-03T06:01:36;94603.56;;;24.68;59.23
20009;BME280;10165;42.662;23.260;2022-07-03T06:04:03;94595.13;;;25.14;58.68
20009;BME280;10165;42.662;23.260;2022-07-03T06:06:30;94600.75;;;25.07;58.89
20009;BME280;10165;42.662;23.260;2022-07-03T06:08:57;94592.88;;;24.93;61.41
20009;BME280;10165;42.662;23.260;2022-07-03T06:11:23;94603.81;;;25.61;59.84
20009;BME280;10165;42.662;23.260;2022-07-03T06:13:50;94596.03;;;25.44;59.00
20009;BME280;10165;42.662;23.260;2022-07-03T06:16:17;94607.72;;;25.44;59.73
20009;BME280;10165;42.662;23.260;2022-07-03T06:18:45;94599.72;;;25.69;58.47
20009;BME280;10165;42.662;23.260;2022-07-03T06:21:12;94597.63;;;25.25;60.33
20009;BME280;10165;42.662;23.260;2022-07-03T06:23:38;94601.94;;;25.58;58.12
20009;BME280;10165;42.662;23.260;2022-07-03T06:26:16;94601.31;;;25.51;57.78
20009;BME280;10165;42.662;23.260;2022-07-03T06:28:43;94599.03;;;24.97;58.40
20009;BME280;10165;42.662;23.260;2022-07-03T06:31:10;94601.28;;;25.18;59.17
20009;BME280;10165;42.662;23.260;2022-07-03T06:33:37;94599.25;;;25.39;58.83
20009;BME280;10165;42.662;23.260;2022-07-03T06:36:04;94605.50;;;25.88;57.13
20009;BME280;10165;42.662;23.260;2022-07-03T06:38:30;94598.06;;;25.88;57.14
20009;BME280;10165;42.662;23.260;2022-07-03T06:40:57;94598.00;;;25.76;58.95
20009;BME280;10165;42.662;23.260;2022-07-03T06:43:24;94596.00;;;25.76;58.43
20009;BME280;10165;42.662;23.260;2022-07-03T06:45:51;94594.78;;;26.09;58.29
20009;BME280;10165;42.662;23.260;2022-07-03T06:48:17;94582.34;;;25.76;59.95
20009;BME280;10165;42.662;23.260;2022-07-03T06:50:47;94596.78;;;25.60;56.87
20009;BME280;10165;42.662;23.260;2022-07-03T06:53:14;94589.34;;;25.77;58.15
20009;BME280;10165;42.662;23.260;2022-07-03T06:55:41;94589.44;;;25.90;56.42
20009;BME280;10165;42.662;23.260;2022-07-03T06:58:08;94593.22;;;26.08;56.31
20009;BME280;10165;42.662;23.260;2022-07-03T07:00:35;94586.72;;;26.47;55.34
20009;BME280;10165;42.662;23.260;2022-07-03T07:03:02;94598.34;;;25.61;58.10
20009;BME280;10165;42.662;23.260;2022-07-03T07:05:29;94601.06;;;25.61;57.83
20009;BME280;10165;42.662;23.260;2022-07-03T07:07:56;94590.72;;;25.69;57.52
20009;BME280;10165;42.662;23.260;2022-07-03T07:10:23;94592.00;;;26.54;56.50
20009;BME280;10165;42.662;23.260;2022-07-03T07:12:50;94580.31;;;26.38;55.83
20009;BME280;10165;42.662;23.260;2022-07-03T07:15:17;94585.69;;;26.70;54.55
20009;BME280;10165;42.662;23.260;2022-07-03T07:17:43;94575.00;;;27.14;54.28
20009;BME280;10165;42.662;23.260;2022-07-03T07:20:10;94583.66;;;26.99;54.28
20009;BME280;10165;42.662;23.260;2022-07-03T07:22:37;94581.28;;;26.31;55.27
20009;BME280;10165;42.662;23.260;2022-07-03T07:25:04;94578.63;;;26.56;54.82
20009;BME280;10165;42.662;23.260;2022-07-03T07:27:31;94574.38;;;26.81;55.18
20009;BME280;10165;42.662;23.260;2022-07-03T07:29:58;94580.41;;;26.05;56.12
20009;BME280;10165;42.662;23.260;2022-07-03T07:32:24;94573.31;;;26.78;55.96
20009;BME280;10165;42.662;23.260;2022-07-03T07:34:51;94571.78;;;27.02;54.86
20009;BME280;10165;42.662;23.260;2022-07-03T07:37:18;94575.22;;;25.95;56.62
20009;BME280;10165;42.662;23.260;2022-07-03T07:39:45;94581.34;;;26.85;54.11
20009;BME280;10165;42.662;23.260;2022-07-03T07:42:12;94573.13;;;27.23;53.22
20009;BME280;10165;42.662;23.260;2022-07-03T07:44:39;94575.88;;;27.36;53.80
20009;BME280;10165;42.662;23.260;2022-07-03T07:47:06;94573.63;;;26.80;55.28
20009;BME280;10165;42.662;23.260;2022-07-03T07:49:33;94571.88;;;27.37;53.94
20009;BME280;10165;42.662;23.260;2022-07-03T07:51:59;94569.53;;;26.59;54.70
20009;BME280;10165;42.662;23.260;2022-07-03T07:54:26;94575.75;;;26.89;54.67
20009;BME280;10165;42.662;23.260;2022-07-03T07:56:53;94572.41;;;26.69;55.26
20009;BME280;10165;42.662;23.260;2022-07-03T07:59:20;94564.66;;;27.30;53.61
20009;BME280;10165;42.662;23.260;2022-07-03T08:01:46;94571.69;;;27.44;52.11
20009;BME280;10165;42.662;23.260;2022-07-03T08:04:31;94569.72;;;27.32;52.33
20009;BME280;10165;42.662;23.260;2022-07-03T08:07:17;94564.13;;;27.35;52.33
20009;BME280;10165;42.662;23.260;2022-07-03T08:09:43;94562.94;;;27.83;52.08
20009;BME280;10165;42.662;23.260;2022-07-03T08:12:11;94566.22;;;27.06;51.76
20009;BME280;10165;42.662;23.260;2022-07-03T08:14:38;94554.88;;;27.29;52.50
20009;BME280;10165;42.662;23.260;2022-07-03T08:17:06;94563.44;;;27.69;49.94
20009;BME280;10165;42.662;23.260;2022-07-03T08:19:33;94563.34;;;27.94;50.02
20009;BME280;10165;42.662;23.260;2022-07-03T08:22:00;94559.72;;;28.32;48.95
20009;BME280;10165;42.662;23.260;2022-07-03T08:24:29;94567.16;;;28.10;48.87
20009;BME280;10165;42.662;23.260;2022-07-03T08:26:55;94560.13;;;27.74;49.24
20009;BME280;10165;42.662;23.260;2022-07-03T08:29:23;94567.38;;;28.02;49.00
20009;BME280;10165;42.662;23.260;2022-07-03T08:31:50;94563.00;;;27.58;49.93
20009;BME280;10165;42.662;23.260;2022-07-03T08:34:17;94560.78;;;27.78;50.31
20009;BME280;10165;42.662;23.260;2022-07-03T08:36:44;94562.72;;;27.90;49.43
20009;BME280;10165;42.662;23.260;2022-07-03T08:39:11;94562.50;;;28.19;49.90
20009;BME280;10165;42.662;23.260;2022-07-03T08:41:39;94566.94;;;28.04;49.73
20009;BME280;10165;42.662;23.260;2022-07-03T08:44:11;94557.00;;;28.41;49.56
20009;BME280;10165;42.662;23.260;2022-07-03T08:46:39;94566.28;;;28.13;48.96
20009;BME280;10165;42.662;23.260;2022-07-03T08:49:06;94558.09;;;27.87;49.04
20009;BME280;10165;42.662;23.260;2022-07-03T08:51:34;94548.91;;;28.16;49.20
20009;BME280;10165;42.662;23.260;2022-07-03T08:54:01;94553.91;;;27.95;48.17
20009;BME280;10165;42.662;23.260;2022-07-03T08:56:31;94556.47;;;28.24;48.56
20009;BME280;10165;42.662;23.260;2022-07-03T08:58:58;94558.00;;;28.47;46.96
20009;BME280;10165;42.662;23.260;2022-07-03T09:01:25;94549.81;;;28.34;47.99
20009;BME280;10165;42.662;23.260;2022-07-03T09:03:52;94550.25;;;28.55;50.00
20009;BME280;10165;42.662;23.260;2022-07-03T09:06:21;94551.06;;;28.64;48.12
20009;BME280;10165;42.662;23.260;2022-07-03T09:08:47;94551.16;;;29.04;47.43
20009;BME280;10165;42.662;23.260;2022-07-03T09:11:16;94539.50;;;29.31;46.31
20009;BME280;10165;42.662;23.260;2022-07-03T09:13:43;94550.94;;;28.98;48.71
20009;BME280;10165;42.662;23.260;2022-07-03T09:16:16;94541.41;;;28.81;46.33
20009;BME280;10165;42.662;23.260;2022-07-03T09:18:44;94540.66;;;28.81;46.79
20009;BME280;10165;42.662;23.260;2022-07-03T09:21:12;94538.16;;;29.14;45.95
20009;BME280;10165;42.662;23.260;2022-07-03T09:23:41;94538.66;;;28.81;44.66
20009;BME280;10165;42.662;23.260;2022-07-03T09:26:16;94538.03;;;28.77;43.55
20009;BME280;10165;42.662;23.260;2022-07-03T09:28:48;94534.44;;;28.89;43.53
20009;BME280;10165;42.662;23.260;2022-07-03T09:31:28;94534.28;;;29.33;44.48
20009;BME280;10165;42.662;23.260;2022-07-03T09:34:01;94529.03;;;29.26;44.67
20009;BME280;10165;42.662;23.260;2022-07-03T09:36:48;94528.19;;;29.38;40.91
20009;BME280;10165;42.662;23.260;2022-07-03T09:44:37;94517.78;;;29.33;40.64
20009;BME280;10165;42.662;23.260;2022-07-03T09:47:12;94521.66;;;29.05;41.82
20009;BME280;10165;42.662;23.260;2022-07-03T09:52:33;94514.78;;;29.09;41.45
20009;BME280;10165;42.662;23.260;2022-07-03T10:02:55;94508.47;;;29.39;40.50
20009;BME280;10165;42.662;23.260;2022-07-03T10:05:24;94497.81;;;29.69;39.34
20009;BME280;10165;42.662;23.260;2022-07-03T10:08:03;94500.09;;;29.61;41.07
20009;BME280;10165;42.662;23.260;2022-07-03T10:10:32;94501.97;;;30.10;40.40
20009;BME280;10165;42.662;23.260;2022-07-03T10:13:00;94509.28;;;29.67;37.78
20009;BME280;10165;42.662;23.260;2022-07-03T10:15:29;94498.47;;;30.00;37.24
20009;BME280;10165;42.662;23.260;2022-07-03T10:17:59;94487.84;;;30.44;34.29
20009;BME280;10165;42.662;23.260;2022-07-03T10:20:29;94497.03;;;30.41;36.26
20009;BME280;10165;42.662;23.260;2022-07-03T10:22:56;94497.41;;;29.88;34.11
20009;BME280;10165;42.662;23.260;2022-07-03T10:25:23;94496.31;;;29.95;34.08
20009;BME280;10165;42.662;23.260;2022-07-03T10:27:50;94503.03;;;29.85;33.54
20009;BME280;10165;42.662;23.260;2022-07-03T10:30:20;94486.16;;;30.28;33.49
20009;BME280;10165;42.662;23.260;2022-07-03T10:32:50;94481.97;;;30.69;31.82
20009;BME280;10165;42.662;23.260;2022-07-03T10:35:38;94485.28;;;30.13;32.48
20009;BME280;10165;42.662;23.260;2022-07-03T10:41:00;94481.16;;;29.81;31.97
20009;BME280;10165;42.662;23.260;2022-07-03T10:43:48;94482.81;;;29.61;30.56
20009;BME280;10165;42.662;23.260;2022-07-03T10:46:33;94481.78;;;29.85;30.93
20009;BME280;10165;42.662;23.260;2022-07-03T10:49:06;94482.50;;;30.22;31.58
20009;BME280;10165;42.662;23.260;2022-07-03T10:51:55;94466.47;;;30.03;29.03
20009;BME280;10165;42.662;23.260;2022-07-03T10:54:23;94468.56;;;30.17;28.76
20009;BME280;10165;42.662;23.260;2022-07-03T10:57:09;94467.19;;;30.21;29.42
20009;BME280;10165;42.662;23.260;2022-07-03T11:05:10;94456.91;;;30.49;30.58
20009;BME280;10165;42.662;23.260;2022-07-03T11:13:05;94454.50;;;30.06;31.49
20009;BME280;10165;42.662;23.260;2022-07-03T11:15:40;94451.06;;;30.56;31.15
20009;BME280;10165;42.662;23.260;2022-07-03T11:23:19;94454.59;;;30.57;31.56
20009;BME280;10165;42.662;23.260;2022-07-03T11:25:51;94441.41;;;30.94;33.32
20009;BME280;10165;42.662;23.260;2022-07-03T11:36:32;94430.66;;;29.66;33.45
20009;BME280;10165;42.662;23.260;2022-07-03T11:41:28;94425.44;;;30.65;32.59
20009;BME280;10165;42.662;23.260;2022-07-03T11:43:58;94423.88;;;30.22;32.21
20009;BME280;10165;42.662;23.260;2022-07-03T11:46:27;94425.28;;;29.90;33.09
20009;BME280;10165;42.662;23.260;2022-07-03T11:49:12;94414.00;;;30.48;30.92
20009;BME280;10165;42.662;23.260;2022-07-03T11:51:54;94418.25;;;30.07;31.26
20009;BME280;10165;42.662;23.260;2022-07-03T11:54:24;94416.41;;;30.64;31.26
20009;BME280;10165;42.662;23.260;2022-07-03T11:56:51;94409.03;;;30.10;31.50
20009;BME280;10165;42.662;23.260;2022-07-03T11:59:20;94414.84;;;30.72;31.27
20009;BME280;10165;42.662;23.260;2022-07-03T12:01:50;94416.38;;;30.73;31.66
20009;BME280;10165;42.662;23.260;2022-07-03T12:04:19;94413.91;;;30.75;31.53
20009;BME280;10165;42.662;23.260;2022-07-03T12:06:47;94409.53;;;30.60;30.72
20009;BME280;10165;42.662;23.260;2022-07-03T12:09:23;94414.28;;;30.92;30.93
20009;BME280;10165;42.662;23.260;2022-07-03T12:12:03;94403.13;;;30.87;31.05
20009;BME280;10165;42.662;23.260;2022-07-03T12:14:47;94410.09;;;31.06;32.91
20009;BME280;10165;42.662;23.260;2022-07-03T12:17:33;94405.34;;;31.54;32.02
20009;BME280;10165;42.662;23.260;2022-07-03T12:20:01;94403.81;;;31.53;30.87
20009;BME280;10165;42.662;23.260;2022-07-03T12:22:36;94404.22;;;31.37;31.35
20009;BME280;10165;42.662;23.260;2022-07-03T12:27:37;94395.13;;;31.84;32.49
20009;BME280;10165;42.662;23.260;2022-07-03T12:30:10;94386.78;;;31.30;32.38
20009;BME280;10165;42.662;23.260;2022-07-03T12:32:38;94392.47;;;31.27;33.73
20009;BME280;10165;42.662;23.260;2022-07-03T12:35:06;94398.88;;;31.09;32.35
20009;BME280;10165;42.662;23.260;2022-07-03T12:37:40;94390.66;;;30.67;33.49
20009;BME280;10165;42.662;23.260;2022-07-03T12:40:09;94391.06;;;31.08;33.67
20009;BME280;10165;42.662;23.260;2022-07-03T12:42:55;94389.41;;;31.49;33.63
20009;BME280;10165;42.662;23.260;2022-07-03T12:45:24;94391.16;;;31.61;32.86
20009;BME280;10165;42.662;23.260;2022-07-03T12:50:25;94387.06;;;31.33;37.29
20009;BME280;10165;42.662;23.260;2022-07-03T12:52:57;94387.97;;;31.92;37.45
20009;BME280;10165;42.662;23.260;2022-07-03T12:55:25;94384.13;;;31.36;35.42
20009;BME280;10165;42.662;23.260;2022-07-03T12:58:14;94386.31;;;30.75;35.52
20009;BME280;10165;42.662;23.260;2022-07-03T13:01:00;94379.38;;;30.89;35.80
20009;BME280;10165;42.662;23.260;2022-07-03T13:03:29;94382.78;;;31.32;34.32
20009;BME280;10165;42.662;23.260;2022-07-03T13:06:13;94378.78;;;31.33;34.89
20009;BME280;10165;42.662;23.260;2022-07-03T13:08:57;94384.69;;;30.93;34.73
20009;BME280;10165;42.662;23.260;2022-07-03T13:11:33;94376.06;;;30.34;35.98
20009;BME280;10165;42.662;23.260;2022-07-03T13:14:12;94370.59;;;30.91;34.79
20009;BME280;10165;42.662;23.260;2022-07-03T13:16:42;94372.88;;;31.40;33.77
20009;BME280;10165;42.662;23.260;2022-07-03T13:19:11;94368.50;;;31.33;34.85
20009;BME280;10165;42.662;23.260;2022-07-03T13:21:38;94370.00;;;30.87;34.68
20009;BME280;10165;42.662;23.260;2022-07-03T13:24:06;94378.59;;;30.56;35.32
20009;BME280;10165;42.662;23.260;2022-07-03T13:26:34;94372.59;;;30.90;34.97
20009;BME280;10165;42.662;23.260;2022-07-03T13:29:00;94363.81;;;30.35;35.59
20009;BME280;10165;42.662;23.260;2022-07-03T13:31:27;94370.16;;;30.59;35.22
20009;BME280;10165;42.662;23.260;2022-07-03T13:33:56;94361.97;;;31.45;41.88
20009;BME280;10165;42.662;23.260;2022-07-03T13:36:22;94364.69;;;31.07;37.61
20009;BME280;10165;42.662;23.260;2022-07-03T13:38:49;94370.09;;;31.25;38.99
20009;BME280;10165;42.662;23.260;2022-07-03T13:41:16;94362.44;;;30.96;35.55
20009;BME280;10165;42.662;23.260;2022-07-03T13:43:45;94364.19;;;31.32;35.67
20009;BME280;10165;42.662;23.260;2022-07-03T13:46:12;94364.41;;;31.82;34.88
20009;BME280;10165;42.662;23.260;2022-07-03T13:48:38;94358.69;;;31.70;34.34
20009;BME280;10165;42.662;23.260;2022-07-03T13:51:05;94354.13;;;31.44;34.38
20009;BME280;10165;42.662;23.260;2022-07-03T13:53:32;94340.78;;;31.27;40.99
20009;BME280;10165;42.662;23.260;2022-07-03T13:55:59;94348.34;;;30.94;37.34
20009;BME280;10165;42.662;23.260;2022-07-03T13:58:26;94337.06;;;30.59;38.68
20009;BME280;10165;42.662;23.260;2022-07-03T14:00:54;94339.25;;;30.79;39.23
20009;BME280;10165;42.662;23.260;2022-07-03T14:03:21;94326.75;;;31.16;38.57
20009;BME280;10165;42.662;23.260;2022-07-03T14:05:48;94341.13;;;30.97;36.66
20009;BME280;10165;42.662;23.260;2022-07-03T14:08:18;94331.88;;;30.85;40.10
20009;BME280;10165;42.662;23.260;2022-07-03T14:10:46;94342.25;;;30.90;39.67
20009;BME280;10165;42.662;23.260;2022-07-03T14:13:15;94335.91;;;30.42;37.86
20009;BME280;10165;42.662;23.260;2022-07-03T14:15:42;94334.72;;;30.34;37.45
20009;BME280;10165;42.662;23.260;2022-07-03T14:18:09;94343.78;;;30.91;37.03
20009;BME280;10165;42.662;23.260;2022-07-03T14:20:36;94348.03;;;30.68;36.65
20009;BME280;10165;42.662;23.260;2022-07-03T14:23:02;94349.22;;;30.76;37.78
20009;BME280;10165;42.662;23.260;2022-07-03T14:25:29;94350.41;;;30.10;38.89